Time;durP1;ratioP1;P1;durP2;ratioP2;P2;SDS_P1;SDS_P2;PMS_P1;PMS_P2;Temp;Humidity;BMP_temperature;BMP_pressure;BME280_temperature;BME280_humidity;BME280_pressure;Samples;Min_cycle;Max_cycle;Signal;HPM_P1;HPM_P2
2022/10/16 00:01:51;;;;;;;1.70;1.50;;;14.90;99.90;;;;;;5032741;28;20457;-69
2022/10/16 00:04:18;;;;;;;2.40;1.80;;;15.00;99.90;;;;;;5032818;28;20507;-69
2022/10/16 00:06:45;;;;;;;1.70;1.30;;;15.00;99.90;;;;;;5033109;28;20464;-70
2022/10/16 00:09:11;;;;;;;3.67;1.80;;;15.00;99.90;;;;;;5032894;28;20956;-70
2022/10/16 00:11:40;;;;;;;1.93;1.67;;;15.00;99.90;;;;;;5032585;28;20461;-70
2022/10/16 00:14:10;;;;;;;1.60;1.50;;;15.00;99.90;;;;;;5032453;28;20484;-69
2022/10/16 00:16:36;;;;;;;1.70;1.60;;;15.00;99.90;;;;;;5032953;28;20463;-69
2022/10/16 00:19:05;;;;;;;1.60;1.27;;;14.90;99.90;;;;;;5032880;28;20465;-69
2022/10/16 00:21:33;;;;;;;1.90;1.30;;;14.90;99.90;;;;;;5032022;28;20465;-69
2022/10/16 00:24:01;;;;;;;3.60;1.83;;;14.90;99.90;;;;;;5032767;28;20491;-69
2022/10/16 00:26:30;;;;;;;2.57;1.40;;;14.80;99.90;;;;;;5032748;28;20485;-70
2022/10/16 00:28:57;;;;;;;1.70;1.50;;;14.80;99.90;;;;;;5032644;28;20473;-70
2022/10/16 00:31:24;;;;;;;2.97;1.60;;;14.80;99.90;;;;;;5031937;28;20844;-69
2022/10/16 00:33:52;;;;;;;1.30;1.20;;;14.70;99.90;;;;;;5032562;28;20481;-69
2022/10/16 00:36:22;;;;;;;1.13;1.03;;;14.70;99.90;;;;;;5032235;28;20457;-69
2022/10/16 00:38:54;;;;;;;2.03;1.40;;;14.70;99.90;;;;;;5032575;28;20461;-70
2022/10/16 00:41:21;;;;;;;1.97;1.43;;;14.60;99.90;;;;;;5031767;28;20465;-69
2022/10/16 00:43:50;;;;;;;1.93;1.43;;;14.60;99.90;;;;;;5032686;28;20488;-70
2022/10/16 00:46:21;;;;;;;1.67;1.30;;;14.50;99.90;;;;;;5032665;28;20484;-69
2022/10/16 00:48:52;;;;;;;1.87;1.40;;;14.50;99.90;;;;;;5032300;28;20835;-70
2022/10/16 00:51:25;;;;;;;1.63;1.33;;;14.50;99.90;;;;;;5031530;28;20464;-70
2022/10/16 00:53:52;;;;;;;1.57;1.40;;;14.40;99.90;;;;;;5032334;28;20476;-70
2022/10/16 00:56:19;;;;;;;1.93;1.70;;;14.40;99.90;;;;;;5032076;28;20465;-70
2022/10/16 00:58:46;;;;;;;1.20;1.10;;;14.40;99.90;;;;;;5032100;28;20457;-70
2022/10/16 01:01:13;;;;;;;3.90;1.47;;;14.40;99.90;;;;;;5031545;28;20465;-70
2022/10/16 01:03:40;;;;;;;1.60;1.50;;;14.30;99.90;;;;;;5031974;28;20836;-69
2022/10/16 01:06:20;;;;;;;1.27;1.17;;;14.30;99.90;;;;;;5031796;28;20493;-69
2022/10/16 01:09:02;;;;;;;1.73;1.47;;;14.20;99.90;;;;;;5031835;28;20475;-70
2022/10/16 01:11:34;;;;;;;1.43;1.33;;;14.30;99.90;;;;;;5031320;28;20472;-69
2022/10/16 01:14:10;;;;;;;1.67;1.33;;;14.20;99.90;;;;;;5031532;28;20480;-69
2022/10/16 01:16:47;;;;;;;1.20;1.10;;;14.20;99.90;;;;;;5032110;28;20467;-69
2022/10/16 01:19:20;;;;;;;5.13;2.20;;;14.20;99.90;;;;;;5031829;28;20844;-70
2022/10/16 01:21:51;;;;;;;2.00;1.50;;;14.20;99.90;;;;;;5030802;28;20465;-69
2022/10/16 01:24:32;;;;;;;1.90;1.40;;;14.20;99.90;;;;;;5031093;28;20485;-69
2022/10/16 01:27:11;;;;;;;1.80;1.67;;;14.20;99.90;;;;;;5031457;28;20500;-70
2022/10/16 01:29:43;;;;;;;1.73;1.37;;;14.20;99.90;;;;;;5031445;28;20463;-69
2022/10/16 01:32:17;;;;;;;1.50;1.40;;;14.20;99.90;;;;;;5030856;28;20472;-69
2022/10/16 01:34:50;;;;;;;1.40;1.30;;;14.20;99.90;;;;;;5031310;28;20484;-70
2022/10/16 01:37:23;;;;;;;3.03;1.60;;;14.10;99.90;;;;;;5031231;28;20968;-69
2022/10/16 01:39:52;;;;;;;1.43;1.33;;;14.10;99.90;;;;;;5031331;28;20461;-69
2022/10/16 01:42:24;;;;;;;1.43;1.30;;;14.10;99.90;;;;;;5030391;28;20464;-70
2022/10/16 01:44:53;;;;;;;3.33;1.20;;;14.10;99.90;;;;;;5031049;28;20481;-69
2022/10/16 01:47:24;;;;;;;5.03;1.80;;;14.10;99.90;;;;;;5031041;28;20859;-70
2022/10/16 01:49:53;;;;;;;3.23;1.57;;;14.10;99.90;;;;;;5030959;28;20465;-68
2022/10/16 01:52:24;;;;;;;1.70;1.60;;;14.10;99.90;;;;;;5030260;28;20968;-69
2022/10/16 01:54:55;;;;;;;2.77;1.93;;;14.10;99.90;;;;;;5031102;28;20488;-69
2022/10/16 01:57:25;;;;;;;2.23;1.40;;;14.10;99.90;;;;;;5031015;28;20576;-69
2022/10/16 01:59:55;;;;;;;2.00;1.20;;;14.10;99.90;;;;;;5030910;28;20461;-68
2022/10/16 02:02:23;;;;;;;2.50;1.50;;;14.10;99.90;;;;;;5030315;28;20465;-69
2022/10/16 02:04:57;;;;;;;1.50;1.40;;;14.10;99.90;;;;;;5030792;28;20485;-70
2022/10/16 02:07:24;;;;;;;1.90;1.70;;;14.10;99.90;;;;;;5030751;28;20461;-69
2022/10/16 02:09:51;;;;;;;1.50;1.40;;;14.10;99.90;;;;;;5030891;28;20557;-69
2022/10/16 02:12:26;;;;;;;8.70;2.00;;;14.20;99.90;;;;;;5030274;28;20461;-69
2022/10/16 02:14:54;;;;;;;1.40;1.27;;;14.20;99.90;;;;;;5030702;28;20488;-69
2022/10/16 02:17:22;;;;;;;2.20;1.50;;;14.20;99.90;;;;;;5030729;28;20469;-70
2022/10/16 02:19:51;;;;;;;1.30;1.20;;;14.30;99.90;;;;;;5030624;28;20464;-69
2022/10/16 02:22:23;;;;;;;3.53;1.43;;;14.30;99.90;;;;;;5030026;28;20818;-69
2022/10/16 02:24:55;;;;;;;1.50;1.30;;;14.30;99.90;;;;;;5030647;28;20480;-70
2022/10/16 02:27:28;;;;;;;2.00;1.60;;;14.30;99.90;;;;;;5030563;28;20499;-69
2022/10/16 02:30:07;;;;;;;1.70;1.33;;;14.30;99.90;;;;;;5030670;28;20468;-69
2022/10/16 02:32:36;;;;;;;1.70;1.60;;;14.40;99.90;;;;;;5030358;28;20468;-69
2022/10/16 02:35:04;;;;;;;3.60;1.40;;;14.40;99.90;;;;;;5030306;28;20480;-70
2022/10/16 02:37:32;;;;;;;1.90;1.73;;;14.40;99.90;;;;;;5034025;28;20472;-70
2022/10/16 02:39:59;;;;;;;1.50;1.27;;;14.50;99.90;;;;;;5034631;28;20468;-70
2022/10/16 02:42:34;;;;;;;1.80;1.70;;;14.40;99.90;;;;;;5033836;28;20461;-70
2022/10/16 02:45:00;;;;;;;1.60;1.33;;;14.40;99.90;;;;;;5034520;28;20931;-70
2022/10/16 02:47:27;;;;;;;1.40;1.30;;;14.40;99.90;;;;;;5034491;28;20493;-70
2022/10/16 02:49:54;;;;;;;1.20;1.10;;;14.40;99.90;;;;;;5034420;28;20479;-70
2022/10/16 02:52:20;;;;;;;2.30;1.77;;;14.40;99.90;;;;;;5033835;28;20456;-70
2022/10/16 02:54:47;;;;;;;2.33;1.30;;;14.40;99.90;;;;;;5034458;28;20481;-70
2022/10/16 02:57:14;;;;;;;1.50;1.10;;;14.40;99.90;;;;;;5034276;28;20461;-69
2022/10/16 02:59:42;;;;;;;1.20;1.10;;;14.30;99.90;;;;;;5034145;28;20457;-69
2022/10/16 03:02:09;;;;;;;4.53;1.53;;;14.30;99.90;;;;;;5033460;28;20813;-70
2022/10/16 03:04:36;;;;;;;1.30;1.20;;;14.30;99.90;;;;;;5034040;28;20480;-69
2022/10/16 03:07:03;;;;;;;1.37;1.13;;;14.30;99.90;;;;;;5034115;28;21069;-69
2022/10/16 03:09:30;;;;;;;1.20;1.10;;;14.30;99.90;;;;;;5034048;28;20471;-70
2022/10/16 03:11:56;;;;;;;4.13;2.50;;;14.30;99.90;;;;;;5033583;28;20484;-70
2022/10/16 03:14:23;;;;;;;1.70;1.47;;;14.30;99.90;;;;;;5033951;28;20512;-69
2022/10/16 03:16:51;;;;;;;1.47;1.37;;;14.20;99.90;;;;;;5033869;28;20463;-70
2022/10/16 03:19:18;;;;;;;2.73;1.23;;;14.20;99.90;;;;;;5033806;28;20548;-68
2022/10/16 03:21:45;;;;;;;1.57;1.47;;;14.20;99.90;;;;;;5033707;28;20467;-70
2022/10/16 03:24:12;;;;;;;1.53;1.30;;;14.20;99.90;;;;;;5033806;28;20504;-70
2022/10/16 03:26:39;;;;;;;1.30;1.20;;;14.20;99.90;;;;;;5033615;28;20484;-69
2022/10/16 03:29:06;;;;;;;1.40;1.30;;;14.20;99.90;;;;;;5033782;28;20461;-69
2022/10/16 03:31:33;;;;;;;1.50;1.40;;;14.20;99.90;;;;;;5033065;28;20526;-69
2022/10/16 03:34:01;;;;;;;1.83;1.33;;;14.20;99.90;;;;;;5033587;28;20483;-69
2022/10/16 03:36:28;;;;;;;1.40;1.30;;;14.20;99.90;;;;;;5033723;28;20817;-69
2022/10/16 03:38:55;;;;;;;1.60;1.30;;;14.20;99.90;;;;;;5033655;28;20461;-69
2022/10/16 03:41:21;;;;;;;1.67;1.57;;;14.10;99.90;;;;;;5032891;28;20860;-69
2022/10/16 03:43:48;;;;;;;1.70;1.60;;;14.10;99.90;;;;;;5033424;28;20493;-69
2022/10/16 03:46:15;;;;;;;3.47;1.77;;;14.10;99.90;;;;;;5033345;28;20489;-69
2022/10/16 03:48:41;;;;;;;1.60;1.40;;;14.10;99.90;;;;;;5032546;28;20471;-69
2022/10/16 03:51:09;;;;;;;2.70;1.40;;;14.10;99.90;;;;;;5033108;28;20461;-69
2022/10/16 03:53:36;;;;;;;1.97;1.83;;;14.10;99.90;;;;;;5033151;28;20484;-69
2022/10/16 03:56:03;;;;;;;2.80;1.33;;;14.10;99.90;;;;;;5033231;28;20468;-69
2022/10/16 03:58:30;;;;;;;1.40;1.30;;;14.10;99.90;;;;;;5033225;28;20467;-69
2022/10/16 04:00:56;;;;;;;1.40;1.30;;;14.00;99.90;;;;;;5032963;28;20457;-69
2022/10/16 04:03:23;;;;;;;2.37;2.00;;;14.00;99.90;;;;;;5032633;28;20484;-70
2022/10/16 04:05:50;;;;;;;1.60;1.50;;;14.00;99.90;;;;;;5033009;28;20457;-70
2022/10/16 04:08:18;;;;;;;1.60;1.40;;;14.00;99.90;;;;;;5033094;28;21156;-70
2022/10/16 04:10:45;;;;;;;1.23;1.07;;;14.00;99.90;;;;;;5033104;28;21012;-70
2022/10/16 04:13:13;;;;;;;1.67;1.13;;;14.00;99.90;;;;;;5032163;28;20955;-69
2022/10/16 04:15:40;;;;;;;3.43;1.47;;;14.00;99.90;;;;;;5032952;28;20528;-70
2022/10/16 04:18:07;;;;;;;1.70;1.40;;;14.00;99.90;;;;;;5032861;28;20457;-69
2022/10/16 04:20:34;;;;;;;1.20;1.10;;;14.00;99.90;;;;;;5033214;28;20460;-70
2022/10/16 04:23:01;;;;;;;2.83;1.60;;;14.00;99.90;;;;;;5032098;28;20828;-70
2022/10/16 04:25:29;;;;;;;4.00;1.77;;;14.00;99.90;;;;;;5032959;28;20468;-69
2022/10/16 04:27:56;;;;;;;1.20;1.10;;;14.10;99.90;;;;;;5032802;28;20852;-69
2022/10/16 04:30:23;;;;;;;2.13;1.67;;;14.00;99.90;;;;;;5032578;28;20472;-68
2022/10/16 04:32:51;;;;;;;3.13;1.17;;;14.10;99.90;;;;;;5032162;28;20515;-69
2022/10/16 04:35:18;;;;;;;1.80;1.33;;;14.00;99.90;;;;;;5032555;28;20480;-69
2022/10/16 04:37:44;;;;;;;1.40;1.20;;;14.00;99.90;;;;;;5032508;28;20457;-69
2022/10/16 04:40:11;;;;;;;1.43;1.33;;;14.10;99.90;;;;;;5032501;28;20465;-69
2022/10/16 04:42:39;;;;;;;1.70;1.60;;;14.00;99.90;;;;;;5087832;22;21003;-93
2022/10/16 04:45:07;;;;;;;6.60;1.20;;;14.10;99.90;;;;;;5076875;28;20447;-93
2022/10/16 04:47:34;;;;;;;3.20;0.97;;;14.10;99.90;;;;;;5079006;28;20471;-92
2022/10/16 04:50:02;;;;;;;1.43;1.30;;;14.00;99.90;;;;;;5065783;28;20465;-92
2022/10/16 04:52:41;;;;;;;1.30;1.10;;;14.00;99.90;;;;;;5056143;28;20484;-93
2022/10/16 04:55:08;;;;;;;1.43;1.23;;;14.00;99.90;;;;;;5056601;28;20810;-93
2022/10/16 04:57:35;;;;;;;2.10;1.60;;;14.00;99.90;;;;;;5056125;28;20583;-92
2022/10/16 05:00:04;;;;;;;1.53;1.43;;;14.00;99.90;;;;;;5060191;23;21067;-69
2022/10/16 05:02:30;;;;;;;1.13;1.03;;;14.00;99.90;;;;;;5051237;28;20456;-69
2022/10/16 05:04:57;;;;;;;2.60;1.40;;;14.00;99.90;;;;;;5051230;28;20487;-69
2022/10/16 05:07:24;;;;;;;3.73;1.30;;;14.00;99.90;;;;;;5051841;28;20842;-69
2022/10/16 05:09:50;;;;;;;1.40;1.30;;;14.10;99.90;;;;;;5051407;28;20468;-69
2022/10/16 05:12:17;;;;;;;1.40;1.30;;;14.10;99.90;;;;;;5051157;28;20970;-69
2022/10/16 05:14:44;;;;;;;1.70;1.30;;;14.20;99.90;;;;;;5051054;28;20491;-69
2022/10/16 05:17:12;;;;;;;2.50;1.50;;;14.20;99.90;;;;;;5051709;28;20456;-69
2022/10/16 05:19:39;;;;;;;1.40;1.27;;;14.20;99.90;;;;;;5051128;28;20460;-69
2022/10/16 05:22:05;;;;;;;1.60;1.50;;;14.20;99.90;;;;;;5050782;28;20464;-68
2022/10/16 05:24:32;;;;;;;1.73;1.63;;;14.10;99.90;;;;;;5051314;28;20939;-69
2022/10/16 05:26:59;;;;;;;3.13;1.40;;;14.10;99.90;;;;;;5050985;28;20491;-69
2022/10/16 05:29:26;;;;;;;5.00;1.57;;;14.10;99.90;;;;;;5050892;28;20467;-69
2022/10/16 05:31:53;;;;;;;2.73;1.60;;;14.10;99.90;;;;;;5047728;28;20742;-68
2022/10/16 05:34:21;;;;;;;2.83;1.20;;;14.00;99.90;;;;;;5051315;28;20526;-68
2022/10/16 05:36:48;;;;;;;3.83;1.37;;;14.00;99.90;;;;;;5051034;28;20460;-69
2022/10/16 05:39:16;;;;;;;3.73;1.30;;;14.00;99.90;;;;;;5051374;28;20845;-68
2022/10/16 05:41:43;;;;;;;2.50;1.60;;;14.00;99.90;;;;;;5050569;28;20460;-68
2022/10/16 05:44:10;;;;;;;1.87;1.30;;;14.00;99.90;;;;;;5050980;28;21002;-68
2022/10/16 05:46:37;;;;;;;2.50;1.43;;;14.00;99.90;;;;;;5051011;28;20848;-68
2022/10/16 05:49:04;;;;;;;1.47;1.33;;;13.90;99.90;;;;;;5051135;28;20460;-68
2022/10/16 05:51:32;;;;;;;1.10;1.00;;;13.90;99.90;;;;;;5050755;28;20459;-68
2022/10/16 05:53:58;;;;;;;2.33;1.50;;;13.90;99.90;;;;;;5050793;28;20499;-68
2022/10/16 05:56:25;;;;;;;1.30;1.00;;;13.90;99.90;;;;;;5050981;28;20468;-68
2022/10/16 05:58:52;;;;;;;1.30;1.20;;;13.90;99.90;;;;;;5050541;28;20827;-68
2022/10/16 06:01:20;;;;;;;1.93;1.40;;;13.80;99.90;;;;;;5050550;28;20472;-68
2022/10/16 06:03:47;;;;;;;7.40;1.40;;;13.90;99.90;;;;;;5050460;28;20533;-68
2022/10/16 06:06:15;;;;;;;4.97;1.70;;;13.90;99.90;;;;;;5050973;28;20835;-68
2022/10/16 06:08:45;;;;;;;3.03;1.63;;;13.90;99.90;;;;;;5050702;28;20479;-68
2022/10/16 06:11:13;;;;;;;3.20;1.40;;;13.90;99.90;;;;;;5050157;28;20541;-69
2022/10/16 06:13:42;;;;;;;2.50;1.40;;;14.00;99.90;;;;;;5050501;28;20507;-68
2022/10/16 06:16:09;;;;;;;1.60;1.50;;;14.00;99.90;;;;;;5058392;28;20550;-68
2022/10/16 06:18:36;;;;;;;2.13;1.40;;;14.00;99.90;;;;;;5068537;28;20462;-67
2022/10/16 06:21:08;;;;;;;2.60;1.20;;;14.10;99.90;;;;;;5069586;28;20466;-68
2022/10/16 06:23:35;;;;;;;1.40;1.27;;;14.10;99.90;;;;;;5067793;28;20459;-68
2022/10/16 06:26:08;;;;;;;1.20;1.10;;;14.10;99.90;;;;;;5069570;28;20830;-68
2022/10/16 06:28:35;;;;;;;1.77;1.30;;;14.20;99.90;;;;;;5069162;28;20856;-68
2022/10/16 06:31:02;;;;;;;1.63;1.53;;;14.20;99.90;;;;;;5032571;28;20457;-68
2022/10/16 06:33:29;;;;;;;2.40;1.40;;;14.20;99.90;;;;;;5029436;28;20979;-68
2022/10/16 06:36:01;;;;;;;1.40;1.30;;;14.30;99.90;;;;;;5028726;28;20484;-71
2022/10/16 06:38:29;;;;;;;1.87;1.43;;;14.30;99.90;;;;;;5042472;28;20753;-68
2022/10/16 06:40:56;;;;;;;1.50;1.40;;;14.40;99.90;;;;;;5062324;28;20495;-68
2022/10/16 06:43:25;;;;;;;1.90;1.43;;;14.40;99.90;;;;;;5065028;28;20566;-66
2022/10/16 06:45:53;;;;;;;1.50;1.40;;;14.50;99.90;;;;;;5027349;28;20465;-66
2022/10/16 06:48:21;;;;;;;1.80;1.23;;;14.50;99.90;;;;;;5026641;28;20612;-66
2022/10/16 06:50:58;;;;;;;1.23;1.13;;;14.60;99.90;;;;;;5027444;28;20476;-68
2022/10/16 06:53:25;;;;;;;1.43;1.20;;;14.60;99.90;;;;;;5033174;28;20474;-68
2022/10/16 06:55:52;;;;;;;1.50;1.10;;;14.70;99.90;;;;;;5051828;28;20479;-68
2022/10/16 06:58:18;;;;;;;1.57;1.47;;;14.70;99.90;;;;;;5049488;28;20460;-67
2022/10/16 07:00:47;;;;;;;1.73;1.30;;;14.80;99.90;;;;;;5048725;28;20572;-68
2022/10/16 07:03:14;;;;;;;1.50;1.20;;;14.80;99.90;;;;;;5048804;28;20464;-68
2022/10/16 07:05:42;;;;;;;1.70;1.13;;;14.80;99.90;;;;;;5048483;28;20460;-68
2022/10/16 07:08:09;;;;;;;1.37;1.27;;;14.90;99.90;;;;;;5049078;28;20491;-67
2022/10/16 07:10:36;;;;;;;1.60;1.50;;;14.90;99.90;;;;;;5049184;28;20487;-68
2022/10/16 07:13:03;;;;;;;1.83;1.20;;;15.00;99.90;;;;;;5048612;28;20475;-68
2022/10/16 07:15:30;;;;;;;1.10;1.00;;;15.00;99.90;;;;;;5048839;28;20464;-68
2022/10/16 07:17:58;;;;;;;1.50;1.40;;;15.00;99.90;;;;;;5048200;28;20460;-67
2022/10/16 07:20:25;;;;;;;1.53;1.40;;;15.00;99.90;;;;;;5049258;28;20463;-68
2022/10/16 07:22:52;;;;;;;2.03;1.60;;;15.10;99.90;;;;;;5048814;28;20471;-68
2022/10/16 07:25:19;;;;;;;1.83;1.30;;;15.10;99.90;;;;;;5052394;28;20990;-68
2022/10/16 07:27:46;;;;;;;1.30;1.20;;;15.10;99.90;;;;;;5052788;28;20537;-68
2022/10/16 07:30:13;;;;;;;1.90;1.23;;;15.20;99.90;;;;;;5051766;28;20476;-68
2022/10/16 07:32:39;;;;;;;1.33;1.20;;;15.20;99.90;;;;;;5052284;28;20967;-68
2022/10/16 07:35:08;;;;;;;1.57;1.43;;;15.20;99.90;;;;;;5052372;28;20480;-68
2022/10/16 07:37:35;;;;;;;1.77;1.30;;;15.20;99.90;;;;;;5052450;28;20503;-68
2022/10/16 07:40:02;;;;;;;1.43;1.20;;;15.30;99.90;;;;;;5052457;28;20490;-68
2022/10/16 07:42:29;;;;;;;1.70;1.07;;;15.30;99.90;;;;;;5051871;28;20471;-68
2022/10/16 07:44:55;;;;;;;1.40;1.20;;;15.40;99.90;;;;;;5053042;28;20491;-72
2022/10/16 07:47:22;;;;;;;1.30;1.20;;;15.40;99.90;;;;;;5055255;28;20484;-68
2022/10/16 07:49:49;;;;;;;4.93;1.70;;;15.40;99.90;;;;;;5052786;28;20598;-68
2022/10/16 07:52:17;;;;;;;1.53;1.40;;;15.50;99.90;;;;;;5051914;28;20854;-68
2022/10/16 07:54:43;;;;;;;1.50;1.40;;;15.50;99.90;;;;;;5052092;28;20483;-68
2022/10/16 07:57:10;;;;;;;1.63;1.53;;;15.50;99.90;;;;;;5052455;28;20986;-68
2022/10/16 07:59:37;;;;;;;2.00;1.43;;;15.60;99.90;;;;;;5051765;28;20464;-68
2022/10/16 08:02:04;;;;;;;1.73;1.40;;;15.60;99.90;;;;;;5051082;28;20472;-68
2022/10/16 08:04:30;;;;;;;2.87;1.50;;;15.70;99.90;;;;;;5052274;28;20480;-68
2022/10/16 08:06:57;;;;;;;1.33;1.23;;;15.70;99.90;;;;;;5051807;28;20979;-68
2022/10/16 08:09:25;;;;;;;2.17;1.40;;;15.70;99.90;;;;;;5052196;28;20472;-67
2022/10/16 08:11:52;;;;;;;2.37;1.60;;;15.80;99.90;;;;;;5051322;28;20471;-68
2022/10/16 08:14:19;;;;;;;1.50;1.40;;;15.90;99.90;;;;;;5053465;28;20518;-67
2022/10/16 08:16:46;;;;;;;1.60;1.47;;;15.90;99.90;;;;;;5071604;28;20550;-68
2022/10/16 08:19:13;;;;;;;1.60;1.40;;;15.90;99.90;;;;;;5068769;28;20455;-68
2022/10/16 08:21:40;;;;;;;1.10;1.00;;;16.00;99.90;;;;;;5050140;28;20464;-68
2022/10/16 08:24:07;;;;;;;1.87;1.40;;;16.00;99.90;;;;;;5051615;28;20861;-67
2022/10/16 08:26:35;;;;;;;1.47;1.37;;;16.10;99.90;;;;;;5050907;28;20471;-68
2022/10/16 08:29:01;;;;;;;1.40;1.30;;;16.20;99.90;;;;;;5050895;28;20990;-68
2022/10/16 08:31:28;;;;;;;1.60;1.50;;;16.30;99.90;;;;;;5049677;28;20472;-68
2022/10/16 08:33:55;;;;;;;1.60;1.40;;;16.40;99.90;;;;;;5049677;28;20979;-68
2022/10/16 08:36:22;;;;;;;1.67;1.57;;;16.50;99.90;;;;;;5051015;28;20471;-67
2022/10/16 08:38:50;;;;;;;1.47;1.20;;;16.60;99.90;;;;;;5050472;28;20467;-68
2022/10/16 08:41:50;;;;;;;2.20;1.50;;;16.60;99.90;;;;;;5050758;28;20507;-68
2022/10/16 08:44:44;;;;;;;1.60;1.40;;;16.60;99.90;;;;;;5050748;28;20484;-68
2022/10/16 08:47:18;;;;;;;3.00;1.50;;;16.60;99.90;;;;;;5051024;28;20468;-68
2022/10/16 08:49:56;;;;;;;1.50;1.23;;;16.70;99.90;;;;;;5049209;28;20831;-68
2022/10/16 08:52:24;;;;;;;1.40;1.30;;;16.60;99.90;;;;;;5048012;28;20837;-68
2022/10/16 08:54:56;;;;;;;1.40;1.30;;;16.60;99.90;;;;;;5042150;28;20488;-68
2022/10/16 08:57:25;;;;;;;2.57;1.63;;;16.60;99.90;;;;;;5044131;28;20461;-68
2022/10/16 08:59:59;;;;;;;2.63;1.40;;;16.60;99.90;;;;;;5044798;28;20832;-68
2022/10/16 09:02:33;;;;;;;1.37;1.20;;;16.60;99.90;;;;;;5062351;28;20892;-68
2022/10/16 09:05:45;;;;;;;2.30;1.27;;;16.70;99.90;;;;;;5070058;28;20494;-67
2022/10/16 09:08:21;;;;;;;1.57;1.47;;;16.70;99.90;;;;;;5007609;28;20485;-68
2022/10/16 09:10:56;;;;;;;2.13;1.50;;;16.80;99.90;;;;;;5065674;28;20481;-68
2022/10/16 09:13:29;;;;;;;1.77;1.50;;;16.90;99.90;;;;;;5068776;28;20528;-68
2022/10/16 09:16:11;;;;;;;1.70;1.20;;;17.00;99.90;;;;;;5070189;28;20842;-68
2022/10/16 09:18:45;;;;;;;1.57;1.47;;;17.20;99.90;;;;;;5068833;28;20494;-67
2022/10/16 09:21:19;;;;;;;1.63;1.40;;;17.30;99.90;;;;;;5067022;28;20474;-68
2022/10/16 09:23:46;;;;;;;2.27;1.60;;;17.50;99.90;;;;;;5067733;28;20483;-68
2022/10/16 09:26:14;;;;;;;1.90;1.40;;;17.70;99.90;;;;;;5068606;28;20474;-68
2022/10/16 09:28:41;;;;;;;1.30;1.20;;;17.80;99.90;;;;;;5066817;28;20503;-68
2022/10/16 09:31:17;;;;;;;1.63;1.53;;;18.10;99.90;;;;;;5067571;28;20471;-68
2022/10/16 09:33:46;;;;;;;4.00;1.30;;;18.40;99.90;;;;;;5060243;28;20954;-69
2022/10/16 09:36:14;;;;;;;1.50;1.23;;;18.60;99.90;;;;;;5047864;28;20469;-68
2022/10/16 09:38:41;;;;;;;2.10;1.90;;;19.00;99.90;;;;;;5047684;28;20484;-68
2022/10/16 09:41:17;;;;;;;5.53;1.97;;;19.30;99.90;;;;;;5048863;28;20471;-68
2022/10/16 09:43:50;;;;;;;1.77;1.40;;;19.50;99.90;;;;;;5047451;28;20479;-68
2022/10/16 09:46:28;;;;;;;1.40;1.30;;;19.70;99.90;;;;;;5048002;28;20971;-68
2022/10/16 09:48:57;;;;;;;2.43;1.60;;;19.60;99.90;;;;;;5048575;28;20487;-68
2022/10/16 09:51:26;;;;;;;1.87;1.30;;;19.70;99.90;;;;;;5048608;28;20464;-68
2022/10/16 09:53:58;;;;;;;1.80;1.43;;;20.00;99.90;;;;;;5048564;28;20480;-68
2022/10/16 09:56:26;;;;;;;2.27;1.30;;;20.40;99.90;;;;;;5047594;28;21120;-68
2022/10/16 09:58:54;;;;;;;1.33;1.23;;;20.60;99.90;;;;;;5047928;28;20464;-68
2022/10/16 10:01:25;;;;;;;1.57;1.40;;;20.60;99.90;;;;;;5047846;28;20474;-68
2022/10/16 10:03:58;;;;;;;2.00;1.50;;;20.50;99.90;;;;;;5047829;28;20817;-68
2022/10/16 10:06:27;;;;;;;1.43;1.10;;;20.60;99.90;;;;;;5048612;28;20528;-68
2022/10/16 10:08:55;;;;;;;2.10;1.90;;;20.70;99.90;;;;;;5047818;28;20480;-68
2022/10/16 10:11:51;;;;;;;3.20;1.60;;;20.90;99.90;;;;;;5048200;28;20473;-68
2022/10/16 10:14:24;;;;;;;1.43;1.33;;;21.30;99.90;;;;;;5046002;28;20496;-68
2022/10/16 10:16:54;;;;;;;1.53;1.43;;;21.60;99.90;;;;;;5048617;28;21039;-68
2022/10/16 10:19:23;;;;;;;2.57;1.33;;;21.80;99.90;;;;;;5048827;28;20564;-68
2022/10/16 10:21:51;;;;;;;2.03;1.20;;;21.70;99.90;;;;;;5046944;28;21028;-68
2022/10/16 10:24:20;;;;;;;1.27;1.10;;;21.60;99.90;;;;;;5048566;28;21014;-68
2022/10/16 10:26:54;;;;;;;1.27;1.13;;;21.50;99.90;;;;;;5048466;28;20460;-68
2022/10/16 10:29:32;;;;;;;1.37;1.27;;;21.40;99.90;;;;;;5045789;28;20949;-68
2022/10/16 10:32:13;;;;;;;1.50;1.40;;;21.30;99.90;;;;;;5047642;28;20559;-69
2022/10/16 10:34:59;;;;;;;5.27;1.30;;;21.20;99.90;;;;;;5047133;28;20488;-68
2022/10/16 10:37:38;;;;;;;1.37;1.27;;;21.20;99.90;;;;;;5045992;28;20466;-68
2022/10/16 10:40:14;;;;;;;1.80;1.50;;;21.10;99.90;;;;;;5047090;28;20483;-66
2022/10/16 10:42:47;;;;;;;1.30;1.00;;;21.00;99.90;;;;;;5047435;28;20467;-66
2022/10/16 10:45:22;;;;;;;1.27;1.17;;;21.10;99.90;;;;;;5047650;28;20483;-66
2022/10/16 10:48:04;;;;;;;1.27;1.17;;;21.20;99.90;;;;;;5047886;28;20937;-65
2022/10/16 10:50:39;;;;;;;1.30;1.20;;;21.20;99.90;;;;;;5047520;28;20454;-65
2022/10/16 10:53:14;;;;;;;1.30;1.20;;;21.40;99.90;;;;;;5047184;28;21024;-69
2022/10/16 10:55:46;;;;;;;11.17;1.57;;;21.60;99.90;;;;;;5043867;28;20465;-68
2022/10/16 10:58:55;;;;;;;1.50;1.40;;;22.00;99.90;;;;;;5049425;28;20459;-68
2022/10/16 11:01:27;;;;;;;1.53;1.43;;;22.00;99.90;;;;;;4969906;28;20474;-68
2022/10/16 11:04:23;;;;;;;1.47;1.20;;;22.10;99.90;;;;;;5042744;28;20480;-68
2022/10/16 11:06:53;;;;;;;1.57;1.47;;;22.40;99.90;;;;;;5051598;28;20984;-68
2022/10/16 11:09:25;;;;;;;1.40;1.30;;;22.70;99.90;;;;;;5052191;28;20495;-68
2022/10/16 11:11:57;;;;;;;1.47;1.30;;;22.60;99.90;;;;;;5050757;28;20470;-68
2022/10/16 11:14:30;;;;;;;2.03;1.10;;;22.70;99.90;;;;;;5051535;28;20483;-68
2022/10/16 11:17:02;;;;;;;1.43;1.23;;;22.80;99.90;;;;;;5051665;28;20560;-68
2022/10/16 11:19:37;;;;;;;1.50;1.40;;;22.70;99.90;;;;;;5051871;28;20459;-68
2022/10/16 11:22:12;;;;;;;1.53;1.30;;;22.40;99.90;;;;;;5050834;28;20470;-68
2022/10/16 11:24:45;;;;;;;1.47;1.20;;;22.30;99.90;;;;;;5051118;28;20505;-68
2022/10/16 11:27:17;;;;;;;1.47;1.37;;;22.20;99.90;;;;;;5051878;28;20466;-68
2022/10/16 11:29:50;;;;;;;3.40;1.50;;;22.30;99.90;;;;;;5051208;28;20490;-69
2022/10/16 11:32:24;;;;;;;2.13;1.57;;;22.40;99.90;;;;;;5051557;28;20980;-68
2022/10/16 11:34:58;;;;;;;1.47;1.20;;;22.40;99.90;;;;;;5051594;28;20479;-68
2022/10/16 11:37:28;;;;;;;1.60;1.50;;;22.40;99.90;;;;;;5050435;28;20963;-68
2022/10/16 11:39:59;;;;;;;2.20;1.40;;;22.60;99.90;;;;;;5050638;28;20966;-68
2022/10/16 11:42:34;;;;;;;1.67;1.50;;;22.90;99.90;;;;;;5050377;28;20809;-68
2022/10/16 11:45:09;;;;;;;2.00;1.40;;;23.10;99.90;;;;;;5122157;22;20476;-67
2022/10/16 11:47:41;;;;;;;1.70;1.60;;;23.40;99.90;;;;;;5030492;28;20460;-68
2022/10/16 11:50:29;;;;;;;1.87;1.40;;;23.80;99.90;;;;;;5031149;28;20485;-67
2022/10/16 11:53:04;;;;;;;3.03;1.83;;;24.20;99.90;;;;;;5029569;28;20498;-68
2022/10/16 11:55:35;;;;;;;2.30;1.53;;;24.40;99.90;;;;;;5011444;28;20471;-68
2022/10/16 11:58:07;;;;;;;2.27;1.40;;;24.70;99.90;;;;;;5011308;28;20516;-68
2022/10/16 12:00:40;;;;;;;1.60;1.37;;;25.00;99.90;;;;;;5010844;28;20462;-68
2022/10/16 12:03:18;;;;;;;1.40;1.23;;;25.20;99.90;;;;;;5010652;28;20461;-68
2022/10/16 12:05:59;;;;;;;1.83;1.50;;;25.40;99.90;;;;;;5010895;28;20853;-68
2022/10/16 12:08:27;;;;;;;1.47;1.37;;;25.40;99.90;;;;;;5010856;28;21019;-68
2022/10/16 12:10:55;;;;;;;2.10;1.40;;;25.40;99.90;;;;;;5010899;28;20476;-68
2022/10/16 12:13:33;;;;;;;1.30;1.20;;;25.50;99.90;;;;;;5010290;28;20489;-68
2022/10/16 12:16:07;;;;;;;3.60;1.57;;;25.40;99.90;;;;;;5006816;28;21000;-68
2022/10/16 12:18:35;;;;;;;2.30;1.67;;;25.50;99.90;;;;;;5002943;28;20458;-68
2022/10/16 12:21:06;;;;;;;1.27;1.17;;;25.60;99.90;;;;;;5003488;28;20882;-68
2022/10/16 12:23:34;;;;;;;1.40;1.30;;;25.80;99.90;;;;;;5005587;28;20517;-68
2022/10/16 12:26:03;;;;;;;1.40;1.30;;;25.80;99.90;;;;;;5010482;28;20477;-68
2022/10/16 12:28:30;;;;;;;1.60;1.47;;;25.70;99.90;;;;;;5009792;28;21010;-68
2022/10/16 12:30:59;;;;;;;1.57;1.47;;;25.60;99.90;;;;;;5009450;28;20501;-68
2022/10/16 12:33:28;;;;;;;2.13;1.57;;;25.40;99.90;;;;;;5009406;28;20485;-68
2022/10/16 12:35:55;;;;;;;2.33;1.70;;;25.20;99.90;;;;;;5009637;28;20840;-68
2022/10/16 12:38:28;;;;;;;2.03;1.63;;;25.20;99.90;;;;;;5009424;28;20475;-68
2022/10/16 12:41:01;;;;;;;1.47;1.30;;;25.30;99.90;;;;;;5009637;28;20480;-68
2022/10/16 12:43:42;;;;;;;1.47;1.20;;;25.40;99.90;;;;;;5009091;28;20484;-68
2022/10/16 12:46:38;;;;;;;1.30;1.20;;;25.60;99.90;;;;;;5009375;28;20478;-68
2022/10/16 12:49:24;;;;;;;1.47;1.37;;;25.40;99.90;;;;;;5008764;28;20485;-68
2022/10/16 12:51:51;;;;;;;1.20;1.07;;;25.20;99.90;;;;;;5010380;28;20878;-68
2022/10/16 12:54:23;;;;;;;2.33;1.37;;;24.90;99.90;;;;;;5009901;28;20842;-68
2022/10/16 12:57:03;;;;;;;2.93;1.60;;;24.60;99.90;;;;;;5007665;28;20497;-69
2022/10/16 12:59:39;;;;;;;2.10;1.50;;;24.30;99.90;;;;;;5007823;28;20462;-68
2022/10/16 13:02:27;;;;;;;1.40;1.30;;;24.00;99.90;;;;;;5010159;28;20468;-68
2022/10/16 13:05:12;;;;;;;1.47;1.30;;;23.70;99.90;;;;;;5010461;28;20489;-68